createdAt,value
2018-05-29T00:01:34.323Z,99.90
2018-05-29T00:04:00.535Z,99.90
2018-05-29T00:06:27.514Z,99.90
2018-05-29T00:08:53.711Z,99.90
2018-05-29T00:11:19.953Z,99.90
2018-05-29T00:13:46.346Z,99.90
2018-05-29T00:16:12.555Z,99.90
2018-05-29T00:18:38.786Z,99.90
2018-05-29T00:21:05.786Z,99.90
2018-05-29T00:23:31.963Z,99.90
2018-05-29T00:25:58.180Z,99.90
2018-05-29T00:28:24.563Z,99.90
2018-05-29T00:30:50.777Z,99.90
2018-05-29T00:33:17.028Z,99.90
2018-05-29T00:35:43.301Z,99.90
2018-05-29T00:38:09.519Z,99.90
2018-05-29T00:40:36.054Z,99.90
2018-05-29T00:43:02.294Z,99.90
2018-05-29T00:45:28.502Z,99.90
2018-05-29T00:47:54.716Z,99.90
2018-05-29T00:50:21.698Z,99.90
2018-05-29T00:52:47.923Z,99.90
2018-05-29T00:55:26.348Z,99.90
2018-05-29T00:57:53.300Z,99.90
2018-05-29T01:00:19.518Z,99.90
2018-05-29T01:02:45.754Z,99.90
2018-05-29T01:05:11.970Z,99.90
2018-05-29T01:07:38.195Z,99.90
2018-05-29T01:10:04.465Z,99.90
2018-05-29T01:12:30.679Z,99.90
2018-05-29T01:14:56.893Z,99.90
2018-05-29T01:17:23.159Z,99.90
2018-05-29T01:19:49.390Z,99.90
2018-05-29T01:22:15.610Z,99.90
2018-05-29T01:24:41.859Z,99.90
2018-05-29T01:27:08.074Z,99.90
2018-05-29T01:29:35.036Z,99.90
2018-05-29T01:32:02.012Z,99.90
2018-05-29T01:34:28.297Z,99.90
2018-05-29T01:36:54.529Z,99.90
2018-05-29T01:39:20.793Z,99.90
2018-05-29T01:41:47.028Z,99.90
2018-05-29T01:44:13.229Z,99.90
2018-05-29T01:46:39.486Z,99.90
2018-05-29T01:49:05.690Z,99.90
2018-05-29T01:51:31.903Z,99.90
2018-05-29T01:53:58.885Z,99.90
2018-05-29T01:56:25.117Z,99.90
2018-05-29T01:58:51.339Z,99.90
2018-05-29T02:01:17.588Z,99.90
2018-05-29T02:03:44.555Z,99.90
2018-05-29T02:06:11.503Z,99.90
2018-05-29T02:08:38.475Z,99.90
2018-05-29T02:11:04.707Z,99.90
2018-05-29T02:13:30.930Z,99.90
2018-05-29T02:15:57.172Z,99.90
2018-05-29T02:18:23.380Z,99.90
2018-05-29T02:20:49.599Z,99.90
2018-05-29T02:23:15.881Z,99.90
2018-05-29T02:25:42.080Z,99.90
2018-05-29T02:28:08.283Z,99.90
2018-05-29T02:30:35.285Z,99.90
2018-05-29T02:33:01.552Z,99.90
2018-05-29T02:35:27.763Z,99.90
2018-05-29T02:37:54.013Z,99.90
2018-05-29T02:40:20.217Z,99.90
2018-05-29T02:42:47.195Z,99.90
2018-05-29T02:45:13.467Z,99.90
2018-05-29T02:47:39.714Z,99.90
2018-05-29T02:50:05.946Z,99.90
2018-05-29T02:52:32.196Z,99.90
2018-05-29T02:54:58.425Z,99.90
2018-05-29T02:57:24.649Z,99.90
2018-05-29T02:59:50.891Z,99.90
2018-05-29T03:02:17.117Z,99.90
2018-05-29T03:04:43.314Z,99.90
2018-05-29T03:07:09.555Z,99.90
2018-05-29T03:09:35.794Z,99.90
2018-05-29T03:12:02.008Z,99.90
2018-05-29T03:14:28.245Z,99.90
2018-05-29T03:16:54.474Z,99.90
2018-05-29T03:19:20.678Z,99.90
2018-05-29T03:21:46.925Z,99.90
2018-05-29T03:24:13.136Z,99.90
2018-05-29T03:26:39.342Z,99.90
2018-05-29T03:29:05.576Z,99.90
2018-05-29T03:31:31.776Z,99.90
2018-05-29T03:33:58.785Z,99.90
2018-05-29T03:36:25.045Z,99.90
2018-05-29T03:38:51.260Z,99.90
2018-05-29T03:41:17.483Z,99.90
2018-05-29T03:43:43.738Z,99.90
2018-05-29T03:46:09.938Z,99.90
2018-05-29T03:48:36.894Z,99.90
2018-05-29T03:51:04.370Z,99.90
2018-05-29T03:53:30.599Z,99.90
2018-05-29T03:55:57.578Z,99.90
2018-05-29T03:58:23.814Z,99.90
2018-05-29T04:00:50.542Z,99.90
2018-05-29T04:03:17.527Z,99.70
2018-05-29T04:05:43.770Z,99.70
2018-05-29T04:08:09.969Z,99.70
2018-05-29T04:10:36.178Z,99.60
2018-05-29T04:13:02.421Z,99.60
2018-05-29T04:15:28.631Z,99.40
2018-05-29T04:17:54.846Z,99.40
2018-05-29T04:20:21.820Z,99.50
2018-05-29T04:22:48.053Z,99.50
2018-05-29T04:25:14.258Z,99.50
2018-05-29T04:27:40.652Z,99.30
2018-05-29T04:30:06.846Z,98.90
2018-05-29T04:32:33.056Z,98.70
2018-05-29T04:34:59.343Z,98.50
2018-05-29T04:37:25.573Z,98.20
2018-05-29T04:39:51.780Z,98.00
2018-05-29T04:42:18.045Z,97.60
2018-05-29T04:44:44.268Z,97.30
2018-05-29T04:47:10.469Z,97.10
2018-05-29T04:49:36.721Z,96.90
2018-05-29T04:52:02.945Z,96.80
2018-05-29T04:54:29.515Z,96.70
2018-05-29T04:56:55.765Z,96.80
2018-05-29T04:59:21.977Z,96.70
2018-05-29T05:01:48.182Z,96.70
2018-05-29T05:04:14.412Z,96.60
2018-05-29T05:06:40.621Z,96.60
2018-05-29T05:09:06.831Z,96.60
2018-05-29T05:11:33.078Z,96.40
2018-05-29T05:13:59.282Z,96.40
2018-05-29T05:16:25.494Z,96.50
2018-05-29T05:18:51.727Z,96.30
2018-05-29T05:21:17.960Z,96.20
2018-05-29T05:23:44.159Z,96.30
2018-05-29T05:26:11.128Z,96.40
2018-05-29T05:28:38.082Z,96.10
2018-05-29T05:31:05.025Z,96.20
2018-05-29T05:33:32.059Z,96.20
2018-05-29T05:35:58.484Z,96.20
2018-05-29T05:38:24.687Z,96.20
2018-05-29T05:40:50.926Z,95.80
2018-05-29T05:43:17.147Z,95.70
2018-05-29T05:45:43.379Z,96.00
2018-05-29T05:48:09.634Z,96.30
2018-05-29T05:50:36.588Z,96.30
2018-05-29T05:53:02.819Z,96.30
2018-05-29T05:55:29.058Z,96.30
2018-05-29T05:57:55.279Z,96.30
2018-05-29T06:00:21.526Z,96.30
2018-05-29T06:02:48.036Z,96.30
2018-05-29T06:05:14.255Z,96.30
2018-05-29T06:07:40.491Z,96.30
2018-05-29T06:10:07.470Z,96.10
2018-05-29T06:12:33.685Z,96.10
2018-05-29T06:15:00.623Z,95.70
2018-05-29T06:17:27.024Z,95.70
2018-05-29T06:19:53.238Z,95.70
2018-05-29T06:22:19.458Z,95.60
2018-05-29T06:24:46.430Z,95.40
2018-05-29T06:27:13.386Z,95.30
2018-05-29T06:29:39.611Z,95.30
2018-05-29T06:32:05.889Z,95.10
2018-05-29T06:34:32.102Z,94.90
2018-05-29T06:36:58.349Z,94.70
2018-05-29T06:39:25.315Z,94.30
2018-05-29T06:41:51.529Z,94.20
2018-05-29T06:44:18.489Z,94.10
2018-05-29T06:46:45.497Z,93.90
2018-05-29T06:49:11.709Z,93.90
2018-05-29T06:51:37.920Z,93.60
2018-05-29T06:54:04.177Z,92.50
2018-05-29T06:56:31.131Z,92.40
2018-05-29T06:58:58.083Z,92.20
2018-05-29T07:01:24.341Z,92.20
2018-05-29T07:03:50.555Z,92.10
2018-05-29T07:06:16.975Z,92.10
2018-05-29T07:08:43.309Z,92.50
2018-05-29T07:11:09.518Z,92.80
2018-05-29T07:13:35.737Z,92.50
2018-05-29T07:16:01.985Z,92.00
2018-05-29T07:18:28.951Z,91.40
2018-05-29T07:20:55.901Z,91.40
2018-05-29T07:23:23.041Z,91.60
2018-05-29T07:25:49.265Z,91.60
2018-05-29T07:28:15.477Z,91.30
2018-05-29T07:30:41.732Z,90.30
2018-05-29T07:33:07.976Z,89.60
2018-05-29T07:35:34.198Z,88.30
2018-05-29T07:38:00.441Z,87.20
2018-05-29T07:40:26.653Z,85.70
2018-05-29T07:42:52.860Z,83.60
2018-05-29T07:45:19.098Z,83.60
2018-05-29T07:47:45.314Z,83.70
2018-05-29T07:50:11.530Z,83.80
2018-05-29T07:52:37.784Z,82.90
2018-05-29T07:55:04.015Z,81.80
2018-05-29T07:57:30.254Z,79.70
2018-05-29T07:59:56.502Z,78.50
2018-05-29T08:02:22.704Z,77.40
2018-05-29T08:04:49.679Z,74.70
2018-05-29T08:07:15.990Z,74.60
2018-05-29T08:09:42.212Z,73.80
2018-05-29T08:12:08.436Z,73.80
2018-05-29T08:14:34.773Z,73.60
2018-05-29T08:17:00.981Z,72.40
2018-05-29T08:19:27.199Z,71.00
2018-05-29T08:21:53.440Z,69.30
2018-05-29T08:24:19.674Z,68.80
2018-05-29T08:26:45.881Z,68.80
2018-05-29T08:29:12.122Z,69.00
2018-05-29T08:31:38.358Z,68.60
2018-05-29T08:34:04.598Z,66.60
2018-05-29T08:36:30.831Z,66.00
2018-05-29T08:38:57.061Z,65.20
2018-05-29T08:41:23.290Z,63.50
2018-05-29T08:43:49.546Z,63.00
2018-05-29T08:46:15.765Z,62.30
2018-05-29T08:48:41.995Z,63.50
2018-05-29T08:51:08.971Z,59.70
2018-05-29T08:53:35.184Z,59.60
2018-05-29T08:56:02.154Z,60.60
2018-05-29T08:58:29.134Z,59.00
2018-05-29T09:00:55.627Z,59.00
2018-05-29T09:03:21.837Z,57.60
2018-05-29T09:05:48.077Z,56.60
2018-05-29T09:08:14.325Z,56.20
2018-05-29T09:10:40.541Z,57.60
2018-05-29T09:13:06.780Z,59.70
2018-05-29T09:15:33.045Z,60.00
2018-05-29T09:17:59.262Z,60.70
2018-05-29T09:20:25.613Z,60.00
2018-05-29T09:22:51.816Z,59.40
2018-05-29T09:25:18.029Z,58.60
2018-05-29T09:27:44.273Z,55.30
2018-05-29T09:30:10.481Z,52.00
2018-05-29T09:32:36.686Z,51.70
2018-05-29T09:35:03.099Z,53.00
2018-05-29T09:37:29.366Z,50.80
2018-05-29T09:39:55.530Z,48.90
2018-05-29T09:42:21.785Z,48.00
2018-05-29T09:44:48.019Z,47.10
2018-05-29T09:47:14.240Z,46.20
2018-05-29T09:49:40.491Z,46.40
2018-05-29T09:52:06.711Z,46.90
2018-05-29T09:54:33.673Z,45.30
2018-05-29T09:57:06.925Z,45.30
2018-05-29T09:59:33.160Z,46.00
2018-05-29T10:02:00.132Z,44.40
2018-05-29T10:04:26.369Z,44.50
2018-05-29T10:06:52.616Z,44.90
2018-05-29T10:09:18.843Z,43.80
2018-05-29T10:11:45.142Z,43.00
2018-05-29T10:14:11.374Z,43.10
2018-05-29T10:16:38.323Z,41.20
2018-05-29T10:19:04.564Z,41.20
2018-05-29T10:21:30.788Z,40.00
2018-05-29T10:23:57.008Z,40.70
2018-05-29T10:26:23.430Z,41.00
2018-05-29T10:28:49.640Z,39.90
2018-05-29T10:31:16.612Z,38.60
2018-05-29T10:33:42.842Z,38.60
2018-05-29T10:36:09.063Z,39.50
2018-05-29T10:38:36.019Z,39.20
2018-05-29T10:41:03.008Z,39.40
2018-05-29T10:43:29.238Z,39.30
2018-05-29T10:45:55.497Z,40.10
2018-05-29T10:48:21.715Z,41.10
2018-05-29T10:50:47.950Z,41.80
2018-05-29T10:53:14.910Z,43.00
2018-05-29T10:55:41.174Z,43.00
2018-05-29T10:58:07.390Z,43.00
2018-05-29T11:00:33.610Z,42.20
2018-05-29T11:02:59.857Z,40.50
2018-05-29T11:05:26.839Z,39.30
2018-05-29T11:07:53.051Z,39.20
2018-05-29T11:10:19.293Z,38.90
2018-05-29T11:12:45.505Z,36.70
2018-05-29T11:15:11.743Z,35.90
2018-05-29T11:17:37.988Z,35.40
2018-05-29T11:20:04.315Z,34.80
2018-05-29T11:22:31.219Z,35.20
2018-05-29T11:24:57.481Z,35.20
2018-05-29T11:27:24.446Z,34.40
2018-05-29T11:29:50.665Z,34.40
2018-05-29T11:32:17.745Z,34.00
2018-05-29T11:34:43.975Z,33.90
2018-05-29T11:37:10.931Z,35.70
2018-05-29T11:39:37.184Z,35.70
2018-05-29T11:42:03.431Z,35.80
2018-05-29T11:44:29.623Z,34.90
2018-05-29T11:46:55.911Z,34.20
2018-05-29T11:49:22.128Z,33.00
2018-05-29T11:51:49.109Z,31.90
2018-05-29T11:54:15.349Z,31.90
2018-05-29T11:56:41.605Z,31.40
2018-05-29T11:59:07.825Z,31.10
2018-05-29T12:01:34.065Z,30.30
2018-05-29T12:04:00.299Z,30.00
2018-05-29T12:06:26.514Z,29.70
2018-05-29T12:08:52.762Z,29.40
2018-05-29T12:11:19.006Z,29.40
2018-05-29T12:13:45.963Z,28.90
2018-05-29T12:16:12.972Z,29.40
2018-05-29T12:18:39.180Z,29.40
2018-05-29T12:21:05.394Z,29.90
2018-05-29T12:23:31.618Z,30.00
2018-05-29T12:25:57.836Z,30.10
2018-05-29T12:28:24.066Z,31.30
2018-05-29T12:30:50.324Z,31.90
2018-05-29T12:33:16.542Z,31.70
2018-05-29T12:35:42.773Z,31.70
2018-05-29T12:38:09.024Z,31.10
2018-05-29T12:40:35.256Z,31.10
2018-05-29T12:43:01.469Z,29.30
2018-05-29T12:45:27.892Z,28.20
2018-05-29T12:47:54.140Z,28.50
2018-05-29T12:50:20.356Z,28.90
2018-05-29T12:52:46.616Z,29.70
2018-05-29T12:55:12.864Z,30.40
2018-05-29T12:57:39.830Z,31.70
2018-05-29T13:00:06.843Z,31.70
2018-05-29T13:02:33.084Z,31.70
2018-05-29T13:04:59.304Z,31.00
2018-05-29T13:07:25.631Z,31.30
2018-05-29T13:09:51.852Z,31.20
2018-05-29T13:12:18.822Z,32.50
2018-05-29T13:14:45.798Z,32.70
2018-05-29T13:17:12.000Z,32.70
2018-05-29T13:19:38.239Z,32.40
2018-05-29T13:22:04.491Z,32.80
2018-05-29T13:24:31.449Z,34.00
2018-05-29T13:26:57.704Z,33.90
2018-05-29T13:29:23.981Z,34.30
2018-05-29T13:31:50.216Z,34.40
2018-05-29T13:34:16.445Z,34.10
2018-05-29T13:36:42.697Z,34.30
2018-05-29T13:39:08.989Z,35.00
2018-05-29T13:41:35.175Z,35.40
2018-05-29T13:44:01.537Z,35.60
2018-05-29T13:46:27.787Z,35.80
2018-05-29T13:48:54.033Z,35.90
2018-05-29T13:51:21.024Z,36.00
2018-05-29T13:53:48.023Z,36.30
2018-05-29T13:56:14.229Z,36.20
2018-05-29T13:58:40.504Z,36.70
2018-05-29T14:01:06.749Z,37.40
2018-05-29T14:03:32.952Z,37.80
2018-05-29T14:05:59.217Z,37.50
2018-05-29T14:08:25.483Z,37.20
2018-05-29T14:10:51.731Z,36.40
2018-05-29T14:13:18.011Z,36.20
2018-05-29T14:15:45.004Z,35.30
2018-05-29T14:18:11.204Z,35.30
2018-05-29T14:20:37.625Z,35.20
2018-05-29T14:23:03.846Z,34.90
2018-05-29T14:25:30.091Z,35.10
2018-05-29T14:27:56.368Z,34.70
2018-05-29T14:30:22.590Z,35.10
2018-05-29T14:32:48.815Z,33.10
2018-05-29T14:35:15.103Z,33.00
2018-05-29T14:37:41.342Z,32.30
2018-05-29T14:40:07.576Z,31.50
2018-05-29T14:42:33.824Z,31.80
2018-05-29T14:45:00.040Z,31.80
2018-05-29T14:47:27.004Z,29.50
2018-05-29T14:49:54.098Z,29.00
2018-05-29T14:52:20.371Z,29.00
2018-05-29T14:54:46.582Z,28.70
2018-05-29T14:57:12.859Z,27.70
2018-05-29T14:59:39.080Z,27.40
2018-05-29T15:02:05.314Z,27.50
2018-05-29T15:04:31.576Z,26.90
2018-05-29T15:06:57.836Z,26.20
2018-05-29T15:09:24.042Z,26.20
2018-05-29T15:11:50.322Z,26.30
2018-05-29T15:14:16.567Z,26.50
2018-05-29T15:16:43.553Z,27.10
2018-05-29T15:19:09.811Z,27.10
2018-05-29T15:21:36.054Z,26.50
2018-05-29T15:24:02.347Z,26.40
2018-05-29T15:26:28.642Z,26.50
2018-05-29T15:28:54.879Z,26.20
2018-05-29T15:31:21.098Z,25.80
2018-05-29T15:33:47.341Z,25.70
2018-05-29T15:36:13.607Z,25.90
2018-05-29T15:38:39.851Z,26.30
2018-05-29T15:41:06.126Z,27.20
2018-05-29T15:43:32.369Z,27.00
2018-05-29T15:45:58.644Z,27.00
2018-05-29T15:48:24.948Z,26.80
2018-05-29T15:50:51.196Z,26.60
2018-05-29T15:53:17.502Z,26.70
2018-05-29T15:55:43.804Z,26.90
2018-05-29T15:58:10.059Z,27.20
2018-05-29T16:00:36.355Z,26.90
2018-05-29T16:03:02.659Z,26.80
2018-05-29T16:05:28.945Z,26.60
2018-05-29T16:07:56.045Z,27.60
2018-05-29T16:10:22.349Z,27.60
2018-05-29T16:12:49.373Z,28.00
2018-05-29T16:15:15.672Z,28.00
2018-05-29T16:17:42.195Z,27.80
2018-05-29T16:20:08.448Z,28.20
2018-05-29T16:22:34.731Z,28.40
2018-05-29T16:25:01.055Z,28.10
2018-05-29T16:27:27.318Z,28.10
2018-05-29T16:29:53.595Z,28.30
2018-05-29T16:32:19.909Z,28.90
2018-05-29T16:34:46.254Z,29.40
2018-05-29T16:37:12.615Z,29.30
2018-05-29T16:39:38.935Z,29.70
2018-05-29T16:42:05.242Z,30.10
2018-05-29T16:44:31.776Z,29.90
2018-05-29T16:46:58.830Z,30.10
2018-05-29T16:49:25.099Z,30.10
2018-05-29T16:51:51.425Z,30.30
2018-05-29T16:54:17.775Z,30.30
2018-05-29T16:56:44.368Z,30.80
2018-05-29T16:59:10.661Z,31.60
2018-05-29T17:01:37.135Z,32.40
2018-05-29T17:04:04.215Z,33.50
2018-05-29T17:06:30.513Z,33.50
2018-05-29T17:08:56.850Z,34.20
2018-05-29T17:11:23.907Z,35.90
2018-05-29T17:13:50.946Z,36.00
2018-05-29T17:16:17.310Z,36.00
2018-05-29T17:18:43.590Z,38.10
2018-05-29T17:21:09.828Z,40.20
2018-05-29T17:23:36.117Z,41.70
2018-05-29T17:26:02.344Z,43.00
2018-05-29T17:28:28.604Z,43.90
2018-05-29T17:30:55.006Z,44.60
2018-05-29T17:33:21.210Z,45.30
2018-05-29T17:35:47.427Z,45.80
2018-05-29T17:38:14.479Z,46.80
2018-05-29T17:40:40.650Z,47.40
2018-05-29T17:43:06.890Z,47.20
2018-05-29T17:45:33.193Z,47.10
2018-05-29T17:47:59.493Z,46.90
2018-05-29T17:50:25.747Z,46.90
2018-05-29T17:52:52.005Z,46.80
2018-05-29T17:55:18.266Z,46.50
2018-05-29T17:57:44.883Z,46.30
2018-05-29T18:00:11.167Z,46.40
2018-05-29T18:02:37.414Z,46.20
2018-05-29T18:05:04.459Z,46.30
2018-05-29T18:07:30.817Z,46.20
2018-05-29T18:09:58.819Z,46.80
2018-05-29T18:12:25.054Z,46.80
2018-05-29T18:14:51.446Z,47.50
2018-05-29T18:17:17.667Z,48.70
2018-05-29T18:19:43.891Z,49.20
2018-05-29T18:22:10.212Z,49.80
2018-05-29T18:24:36.403Z,49.80
2018-05-29T18:27:02.681Z,50.40
2018-05-29T18:29:28.970Z,50.30
2018-05-29T18:31:55.951Z,52.10
2018-05-29T18:34:22.187Z,52.10
2018-05-29T18:36:48.447Z,52.20
2018-05-29T18:39:14.691Z,52.00
2018-05-29T18:41:40.918Z,52.50
2018-05-29T18:44:07.201Z,54.30
2018-05-29T18:46:33.466Z,53.80
2018-05-29T18:48:59.779Z,54.10
2018-05-29T18:51:25.992Z,54.70
2018-05-29T18:53:52.208Z,55.10
2018-05-29T18:56:18.462Z,54.90
2018-05-29T18:58:44.866Z,55.50
2018-05-29T19:01:11.125Z,55.90
2018-05-29T19:03:37.427Z,56.40
2018-05-29T19:06:04.636Z,57.40
2018-05-29T19:08:30.936Z,57.40
2018-05-29T19:10:57.922Z,58.30
2018-05-29T19:13:24.221Z,58.30
2018-05-29T19:15:51.214Z,57.80
2018-05-29T19:18:17.483Z,57.80
2018-05-29T19:20:43.792Z,57.60
2018-05-29T19:23:10.353Z,57.50
2018-05-29T19:25:36.655Z,57.60
2018-05-29T19:28:03.779Z,58.30
2018-05-29T19:30:30.044Z,58.30
2018-05-29T19:32:57.218Z,58.70
2018-05-29T19:35:23.594Z,59.30
2018-05-29T19:37:49.935Z,59.70
2018-05-29T19:40:16.320Z,60.10
2018-05-29T19:42:42.795Z,60.30
2018-05-29T19:45:09.830Z,60.40
2018-05-29T19:47:36.138Z,60.40
2018-05-29T19:50:02.510Z,60.60
2018-05-29T19:52:28.815Z,60.50
2018-05-29T19:54:55.793Z,61.10
2018-05-29T19:57:22.142Z,61.70
2018-05-29T19:59:48.549Z,62.00
2018-05-29T20:02:15.744Z,62.40
2018-05-29T20:04:42.055Z,62.50
2018-05-29T20:07:08.387Z,62.90
2018-05-29T20:09:35.421Z,63.50
2018-05-29T20:12:01.749Z,63.40
2018-05-29T20:14:28.031Z,63.80
2018-05-29T20:16:55.050Z,64.10
2018-05-29T20:19:21.541Z,64.10
2018-05-29T20:21:47.891Z,64.40
2018-05-29T20:24:14.186Z,64.90
2018-05-29T20:26:41.312Z,65.50
2018-05-29T20:29:07.600Z,66.20
2018-05-29T20:31:33.880Z,66.80
2018-05-29T20:34:00.193Z,67.10
2018-05-29T20:36:27.216Z,67.60
2018-05-29T20:41:26.483Z,67.80
2018-05-29T20:43:52.794Z,68.10
2018-05-29T20:46:19.078Z,68.40
2018-05-29T20:48:46.098Z,68.90
2018-05-29T20:51:12.445Z,68.90
2018-05-29T20:53:38.732Z,69.00
2018-05-29T20:56:05.057Z,69.50
2018-05-29T20:58:32.073Z,70.10
2018-05-29T21:00:58.355Z,70.00
2018-05-29T21:03:24.738Z,70.20
2018-05-29T21:05:51.060Z,70.30
2018-05-29T21:08:18.088Z,70.70
2018-05-29T21:10:44.358Z,70.70
2018-05-29T21:13:11.341Z,70.50
2018-05-29T21:15:37.590Z,70.50
2018-05-29T21:18:03.835Z,70.70
2018-05-29T21:20:30.070Z,71.10
2018-05-29T21:22:56.336Z,71.40
2018-05-29T21:25:22.576Z,71.70
2018-05-29T21:27:48.802Z,72.10
2018-05-29T21:30:15.049Z,72.30
2018-05-29T21:32:41.269Z,72.80
2018-05-29T21:35:07.577Z,73.20
2018-05-29T21:37:33.746Z,73.60
2018-05-29T21:39:59.962Z,73.90
2018-05-29T21:42:26.948Z,74.80
2018-05-29T21:44:53.181Z,74.80
2018-05-29T21:47:19.447Z,75.10
2018-05-29T21:49:45.661Z,75.80
2018-05-29T21:52:11.866Z,76.10
2018-05-29T21:54:38.110Z,76.50
2018-05-29T21:57:04.321Z,76.90
2018-05-29T21:59:31.391Z,77.10
2018-05-29T22:01:57.627Z,77.10
2018-05-29T22:04:23.862Z,76.40
2018-05-29T22:06:50.126Z,76.30
2018-05-29T22:09:16.339Z,77.40
2018-05-29T22:11:42.596Z,78.00
2018-05-29T22:14:08.794Z,78.50
2018-05-29T22:16:35.007Z,79.00
2018-05-29T22:19:01.997Z,80.30
2018-05-29T22:21:28.218Z,80.40
2018-05-29T22:23:54.422Z,81.10
2018-05-29T22:26:20.755Z,81.90
2018-05-29T22:28:46.966Z,82.80
2018-05-29T22:31:13.184Z,83.70
2018-05-29T22:33:39.407Z,84.50
2018-05-29T22:36:06.370Z,86.00
2018-05-29T22:38:33.353Z,86.40
2018-05-29T22:40:59.564Z,86.40
2018-05-29T22:43:26.514Z,87.70
2018-05-29T22:45:53.490Z,89.00
2018-05-29T22:48:20.462Z,89.90
2018-05-29T22:50:46.724Z,89.90
2018-05-29T22:53:12.982Z,90.40
2018-05-29T22:55:39.218Z,90.80
2018-05-29T22:58:05.452Z,91.30
2018-05-29T23:00:31.704Z,91.60
2018-05-29T23:02:57.982Z,91.80
2018-05-29T23:05:24.946Z,92.20
2018-05-29T23:07:51.945Z,92.30
2018-05-29T23:10:18.186Z,92.30
2018-05-29T23:12:44.404Z,92.40
2018-05-29T23:15:10.639Z,92.60
2018-05-29T23:17:36.846Z,92.80
2018-05-29T23:20:03.067Z,92.90
2018-05-29T23:22:29.285Z,93.30
2018-05-29T23:24:55.531Z,93.60
2018-05-29T23:27:22.057Z,94.00
2018-05-29T23:29:48.256Z,94.50
2018-05-29T23:32:15.222Z,95.60
2018-05-29T23:34:42.179Z,95.80
2018-05-29T23:37:09.118Z,95.90
2018-05-29T23:39:35.360Z,95.90
2018-05-29T23:42:01.574Z,96.20
2018-05-29T23:44:27.790Z,96.30
2018-05-29T23:46:54.011Z,96.50
2018-05-29T23:49:20.951Z,97.20
2018-05-29T23:51:47.927Z,97.40
2018-05-29T23:54:14.160Z,97.40
2018-05-29T23:56:41.089Z,98.20
2018-05-29T23:59:07.320Z,98.10
